sensor_id;sensor_type;location;lat;lon;timestamp;temperature;humidity
54126;DHT22;40360;52.992;6.796;2023-03-14T00:01:33;10.00;99.90
54126;DHT22;40360;52.992;6.796;2023-03-14T00:03:59;10.00;99.90
54126;DHT22;40360;52.992;6.796;2023-03-14T00:06:25;10.00;99.90
54126;DHT22;40360;52.992;6.796;2023-03-14T00:08:51;10.00;99.90
54126;DHT22;40360;52.992;6.796;2023-03-14T00:11:21;10.10;99.90
54126;DHT22;40360;52.992;6.796;2023-03-14T00:13:49;10.20;99.90
54126;DHT22;40360;52.992;6.796;2023-03-14T00:16:16;10.20;99.90
54126;DHT22;40360;52.992;6.796;2023-03-14T00:18:49;10.20;99.90
54126;DHT22;40360;52.992;6.796;2023-03-14T00:21:18;10.30;99.90
54126;DHT22;40360;52.992;6.796;2023-03-14T00:24:06;10.30;99.90
54126;DHT22;40360;52.992;6.796;2023-03-14T00:26:43;10.40;99.90
54126;DHT22;40360;52.992;6.796;2023-03-14T00:29:35;10.50;99.90
54126;DHT22;40360;52.992;6.796;2023-03-14T00:32:21;10.60;99.90
54126;DHT22;40360;52.992;6.796;2023-03-14T00:34:50;10.70;99.90
54126;DHT22;40360;52.992;6.796;2023-03-14T00:37:16;10.70;99.90
54126;DHT22;40360;52.992;6.796;2023-03-14T00:39:44;10.70;99.90
54126;DHT22;40360;52.992;6.796;2023-03-14T00:42:17;10.70;99.90
54126;DHT22;40360;52.992;6.796;2023-03-14T00:44:42;10.60;99.90
54126;DHT22;40360;52.992;6.796;2023-03-14T00:47:11;10.60;99.90
54126;DHT22;40360;52.992;6.796;2023-03-14T00:49:40;10.50;99.90
54126;DHT22;40360;52.992;6.796;2023-03-14T00:52:09;10.50;99.90
54126;DHT22;40360;52.992;6.796;2023-03-14T00:54:40;10.50;99.90
54126;DHT22;40360;52.992;6.796;2023-03-14T00:57:12;10.40;99.90
54126;DHT22;40360;52.992;6.796;2023-03-14T00:59:38;10.40;99.90
54126;DHT22;40360;52.992;6.796;2023-03-14T01:02:04;10.40;99.90
54126;DHT22;40360;52.992;6.796;2023-03-14T01:04:30;10.40;99.90
54126;DHT22;40360;52.992;6.796;2023-03-14T01:06:56;10.40;99.90
54126;DHT22;40360;52.992;6.796;2023-03-14T01:09:22;10.40;99.90
54126;DHT22;40360;52.992;6.796;2023-03-14T01:11:48;10.30;99.90
54126;DHT22;40360;52.992;6.796;2023-03-14T01:14:17;10.30;99.90
54126;DHT22;40360;52.992;6.796;2023-03-14T01:16:43;10.30;99.90
54126;DHT22;40360;52.992;6.796;2023-03-14T01:19:09;10.40;99.90
54126;DHT22;40360;52.992;6.796;2023-03-14T01:21:35;10.40;99.90
54126;DHT22;40360;52.992;6.796;2023-03-14T01:24:05;10.40;99.90
54126;DHT22;40360;52.992;6.796;2023-03-14T01:26:33;10.40;99.90
54126;DHT22;40360;52.992;6.796;2023-03-14T01:29:05;10.40;99.90
54126;DHT22;40360;52.992;6.796;2023-03-14T01:31:34;10.40;99.90
54126;DHT22;40360;52.992;6.796;2023-03-14T01:34:07;10.50;99.90
54126;DHT22;40360;52.992;6.796;2023-03-14T01:36:33;10.40;99.90
54126;DHT22;40360;52.992;6.796;2023-03-14T01:38:59;10.50;99.90
54126;DHT22;40360;52.992;6.796;2023-03-14T01:41:26;10.50;99.90
54126;DHT22;40360;52.992;6.796;2023-03-14T01:43:52;10.60;99.90
54126;DHT22;40360;52.992;6.796;2023-03-14T01:49:36;10.60;99.90
54126;DHT22;40360;52.992;6.796;2023-03-14T01:52:11;10.70;99.90
54126;DHT22;40360;52.992;6.796;2023-03-14T01:54:58;10.70;99.90
54126;DHT22;40360;52.992;6.796;2023-03-14T01:57:47;10.80;99.90
54126;DHT22;40360;52.992;6.796;2023-03-14T02:00:23;10.70;99.90
54126;DHT22;40360;52.992;6.796;2023-03-14T02:03:02;10.60;99.90
54126;DHT22;40360;52.992;6.796;2023-03-14T02:05:44;10.60;99.90
54126;DHT22;40360;52.992;6.796;2023-03-14T02:08:16;10.70;99.90
54126;DHT22;40360;52.992;6.796;2023-03-14T02:11:04;10.60;99.90
54126;DHT22;40360;52.992;6.796;2023-03-14T02:13:40;10.60;99.90
54126;DHT22;40360;52.992;6.796;2023-03-14T02:16:22;10.60;99.90
54126;DHT22;40360;52.992;6.796;2023-03-14T02:18:48;10.60;99.90
54126;DHT22;40360;52.992;6.796;2023-03-14T02:21:20;10.60;99.90
54126;DHT22;40360;52.992;6.796;2023-03-14T02:32:26;10.50;99.90
54126;DHT22;40360;52.992;6.796;2023-03-14T02:34:55;10.50;99.90
54126;DHT22;40360;52.992;6.796;2023-03-14T02:37:41;10.40;99.90
54126;DHT22;40360;52.992;6.796;2023-03-14T02:40:11;10.40;99.90
54126;DHT22;40360;52.992;6.796;2023-03-14T02:42:38;10.40;99.90
54126;DHT22;40360;52.992;6.796;2023-03-14T02:51:14;10.30;99.90
54126;DHT22;40360;52.992;6.796;2023-03-14T02:53:41;10.30;99.90
54126;DHT22;40360;52.992;6.796;2023-03-14T02:56:21;10.30;99.90
54126;DHT22;40360;52.992;6.796;2023-03-14T02:58:56;10.20;99.90
54126;DHT22;40360;52.992;6.796;2023-03-14T03:01:26;10.30;99.90
54126;DHT22;40360;52.992;6.796;2023-03-14T03:03:51;10.20;99.90
54126;DHT22;40360;52.992;6.796;2023-03-14T03:06:21;10.30;99.90
54126;DHT22;40360;52.992;6.796;2023-03-14T03:09:00;10.30;99.90
54126;DHT22;40360;52.992;6.796;2023-03-14T03:11:50;10.30;99.90
54126;DHT22;40360;52.992;6.796;2023-03-14T03:14:18;10.20;99.90
54126;DHT22;40360;52.992;6.796;2023-03-14T03:16:50;10.20;99.90
54126;DHT22;40360;52.992;6.796;2023-03-14T03:19:16;10.20;99.90
54126;DHT22;40360;52.992;6.796;2023-03-14T03:21:49;10.20;99.90
54126;DHT22;40360;52.992;6.796;2023-03-14T03:24:30;10.10;99.90
54126;DHT22;40360;52.992;6.796;2023-03-14T03:26:58;10.10;99.90
54126;DHT22;40360;52.992;6.796;2023-03-14T03:29:24;10.00;99.90
54126;DHT22;40360;52.992;6.796;2023-03-14T03:31:50;10.10;99.90
54126;DHT22;40360;52.992;6.796;2023-03-14T03:34:37;10.00;99.90
54126;DHT22;40360;52.992;6.796;2023-03-14T03:37:06;10.00;99.90
54126;DHT22;40360;52.992;6.796;2023-03-14T03:39:34;9.90;99.90
54126;DHT22;40360;52.992;6.796;2023-03-14T03:42:04;9.90;99.90
54126;DHT22;40360;52.992;6.796;2023-03-14T03:44:41;9.90;99.90
54126;DHT22;40360;52.992;6.796;2023-03-14T03:47:07;9.90;99.90
54126;DHT22;40360;52.992;6.796;2023-03-14T03:49:36;9.90;99.90
54126;DHT22;40360;52.992;6.796;2023-03-14T03:52:05;9.90;99.90
54126;DHT22;40360;52.992;6.796;2023-03-14T03:54:43;9.90;99.90
54126;DHT22;40360;52.992;6.796;2023-03-14T03:57:33;9.80;99.90
54126;DHT22;40360;52.992;6.796;2023-03-14T04:00:08;9.90;99.90
54126;DHT22;40360;52.992;6.796;2023-03-14T04:02:40;9.80;99.90
54126;DHT22;40360;52.992;6.796;2023-03-14T04:05:07;9.80;99.90
54126;DHT22;40360;52.992;6.796;2023-03-14T04:07:39;9.80;99.90
54126;DHT22;40360;52.992;6.796;2023-03-14T04:10:05;9.80;99.90
54126;DHT22;40360;52.992;6.796;2023-03-14T04:12:31;9.80;99.90
54126;DHT22;40360;52.992;6.796;2023-03-14T04:15:00;9.80;99.90
54126;DHT22;40360;52.992;6.796;2023-03-14T04:17:26;9.80;99.90
54126;DHT22;40360;52.992;6.796;2023-03-14T04:20:02;9.70;99.90
54126;DHT22;40360;52.992;6.796;2023-03-14T04:22:28;9.60;99.90
54126;DHT22;40360;52.992;6.796;2023-03-14T04:25:01;9.50;99.90
54126;DHT22;40360;52.992;6.796;2023-03-14T04:27:54;9.50;99.90
54126;DHT22;40360;52.992;6.796;2023-03-14T04:30:20;9.50;99.90
54126;DHT22;40360;52.992;6.796;2023-03-14T04:33:36;9.40;99.90
54126;DHT22;40360;52.992;6.796;2023-03-14T04:36:17;9.40;99.90
54126;DHT22;40360;52.992;6.796;2023-03-14T04:38:53;9.30;99.90
54126;DHT22;40360;52.992;6.796;2023-03-14T04:41:24;9.30;99.90
54126;DHT22;40360;52.992;6.796;2023-03-14T04:43:53;9.30;99.90
54126;DHT22;40360;52.992;6.796;2023-03-14T04:46:26;9.40;99.90
54126;DHT22;40360;52.992;6.796;2023-03-14T04:48:55;9.40;99.90
54126;DHT22;40360;52.992;6.796;2023-03-14T04:51:37;9.50;99.90
54126;DHT22;40360;52.992;6.796;2023-03-14T04:54:09;9.50;99.90
54126;DHT22;40360;52.992;6.796;2023-03-14T04:56:36;9.50;99.90
54126;DHT22;40360;52.992;6.796;2023-03-14T04:59:03;9.40;99.90
54126;DHT22;40360;52.992;6.796;2023-03-14T05:01:29;9.30;99.90
54126;DHT22;40360;52.992;6.796;2023-03-14T05:04:03;9.30;99.90
54126;DHT22;40360;52.992;6.796;2023-03-14T05:06:34;9.30;99.90
54126;DHT22;40360;52.992;6.796;2023-03-14T05:09:03;9.20;99.90
54126;DHT22;40360;52.992;6.796;2023-03-14T05:11:38;9.20;99.90
54126;DHT22;40360;52.992;6.796;2023-03-14T05:14:04;9.20;99.90
54126;DHT22;40360;52.992;6.796;2023-03-14T05:16:30;9.20;99.90
54126;DHT22;40360;52.992;6.796;2023-03-14T05:18:56;9.20;99.90
54126;DHT22;40360;52.992;6.796;2023-03-14T05:21:26;9.20;99.90
54126;DHT22;40360;52.992;6.796;2023-03-14T05:23:52;9.10;99.90
54126;DHT22;40360;52.992;6.796;2023-03-14T05:26:18;9.20;99.90
54126;DHT22;40360;52.992;6.796;2023-03-14T05:28:53;9.20;99.90
54126;DHT22;40360;52.992;6.796;2023-03-14T05:31:19;9.20;99.90
54126;DHT22;40360;52.992;6.796;2023-03-14T05:33:48;9.20;99.90
54126;DHT22;40360;52.992;6.796;2023-03-14T05:36:14;9.20;99.90
54126;DHT22;40360;52.992;6.796;2023-03-14T05:38:52;9.20;99.90
54126;DHT22;40360;52.992;6.796;2023-03-14T06:01:43;9.00;99.90
54126;DHT22;40360;52.992;6.796;2023-03-14T06:04:09;9.00;99.90
54126;DHT22;40360;52.992;6.796;2023-03-14T06:06:35;9.00;99.90
54126;DHT22;40360;52.992;6.796;2023-03-14T06:09:01;9.00;99.90
54126;DHT22;40360;52.992;6.796;2023-03-14T06:11:26;9.00;99.90
54126;DHT22;40360;52.992;6.796;2023-03-14T06:13:52;9.00;99.90
54126;DHT22;40360;52.992;6.796;2023-03-14T06:16:18;9.00;99.90
54126;DHT22;40360;52.992;6.796;2023-03-14T06:18:44;9.00;99.90
54126;DHT22;40360;52.992;6.796;2023-03-14T06:21:12;9.00;99.90
54126;DHT22;40360;52.992;6.796;2023-03-14T06:23:38;9.00;99.90
54126;DHT22;40360;52.992;6.796;2023-03-14T06:26:04;9.00;99.90
54126;DHT22;40360;52.992;6.796;2023-03-14T06:28:31;9.00;99.90
54126;DHT22;40360;52.992;6.796;2023-03-14T06:30:57;9.00;99.90
54126;DHT22;40360;52.992;6.796;2023-03-14T06:33:23;9.00;99.90
54126;DHT22;40360;52.992;6.796;2023-03-14T06:35:49;9.00;99.90
54126;DHT22;40360;52.992;6.796;2023-03-14T06:38:15;9.00;99.90
54126;DHT22;40360;52.992;6.796;2023-03-14T06:40:40;9.00;99.90
54126;DHT22;40360;52.992;6.796;2023-03-14T06:43:06;9.00;99.90
54126;DHT22;40360;52.992;6.796;2023-03-14T06:45:32;9.00;99.90
54126;DHT22;40360;52.992;6.796;2023-03-14T06:47:58;9.00;99.90
54126;DHT22;40360;52.992;6.796;2023-03-14T06:50:23;9.10;99.90
54126;DHT22;40360;52.992;6.796;2023-03-14T06:52:52;9.00;99.90
54126;DHT22;40360;52.992;6.796;2023-03-14T06:55:18;9.00;99.90
54126;DHT22;40360;52.992;6.796;2023-03-14T06:57:44;9.00;99.90
54126;DHT22;40360;52.992;6.796;2023-03-14T07:00:11;9.00;99.90
54126;DHT22;40360;52.992;6.796;2023-03-14T07:02:38;9.00;99.90
54126;DHT22;40360;52.992;6.796;2023-03-14T07:05:04;9.00;99.90
54126;DHT22;40360;52.992;6.796;2023-03-14T07:07:30;8.90;99.90
54126;DHT22;40360;52.992;6.796;2023-03-14T07:09:56;9.00;99.90
54126;DHT22;40360;52.992;6.796;2023-03-14T07:12:21;9.10;99.90
54126;DHT22;40360;52.992;6.796;2023-03-14T07:14:47;9.00;99.90
54126;DHT22;40360;52.992;6.796;2023-03-14T07:17:13;9.00;99.90
54126;DHT22;40360;52.992;6.796;2023-03-14T07:19:38;9.00;99.90
54126;DHT22;40360;52.992;6.796;2023-03-14T07:22:05;8.80;99.90
54126;DHT22;40360;52.992;6.796;2023-03-14T07:24:30;8.50;99.90
54126;DHT22;40360;52.992;6.796;2023-03-14T07:26:56;8.30;99.90
54126;DHT22;40360;52.992;6.796;2023-03-14T07:29:22;8.00;99.90
54126;DHT22;40360;52.992;6.796;2023-03-14T07:31:48;7.80;99.90
54126;DHT22;40360;52.992;6.796;2023-03-14T07:34:13;7.60;99.90
54126;DHT22;40360;52.992;6.796;2023-03-14T07:36:39;7.40;99.90
54126;DHT22;40360;52.992;6.796;2023-03-14T07:39:05;7.20;99.90
54126;DHT22;40360;52.992;6.796;2023-03-14T07:41:31;6.90;99.90
54126;DHT22;40360;52.992;6.796;2023-03-14T07:43:56;6.60;99.90
54126;DHT22;40360;52.992;6.796;2023-03-14T07:46:22;6.40;99.90
54126;DHT22;40360;52.992;6.796;2023-03-14T07:48:48;6.20;99.90
54126;DHT22;40360;52.992;6.796;2023-03-14T07:51:14;6.00;99.90
54126;DHT22;40360;52.992;6.796;2023-03-14T07:53:39;5.90;99.90
54126;DHT22;40360;52.992;6.796;2023-03-14T07:56:05;5.70;99.90
54126;DHT22;40360;52.992;6.796;2023-03-14T07:58:31;5.50;99.90
54126;DHT22;40360;52.992;6.796;2023-03-14T08:00:58;5.40;99.90
54126;DHT22;40360;52.992;6.796;2023-03-14T08:03:24;5.30;99.90
54126;DHT22;40360;52.992;6.796;2023-03-14T08:05:50;5.20;99.90
54126;DHT22;40360;52.992;6.796;2023-03-14T08:08:17;5.10;99.90
54126;DHT22;40360;52.992;6.796;2023-03-14T08:10:43;5.00;99.90
54126;DHT22;40360;52.992;6.796;2023-03-14T08:13:09;4.90;99.90
54126;DHT22;40360;52.992;6.796;2023-03-14T08:15:35;4.80;99.90
54126;DHT22;40360;52.992;6.796;2023-03-14T08:18:02;4.70;99.90
54126;DHT22;40360;52.992;6.796;2023-03-14T08:20:29;4.60;99.90
54126;DHT22;40360;52.992;6.796;2023-03-14T08:22:59;4.60;99.90
54126;DHT22;40360;52.992;6.796;2023-03-14T08:25:26;4.60;99.90
54126;DHT22;40360;52.992;6.796;2023-03-14T08:27:52;4.70;99.90
54126;DHT22;40360;52.992;6.796;2023-03-14T08:30:19;4.70;99.90
54126;DHT22;40360;52.992;6.796;2023-03-14T08:32:46;4.70;99.90
54126;DHT22;40360;52.992;6.796;2023-03-14T08:35:12;4.80;99.90
54126;DHT22;40360;52.992;6.796;2023-03-14T08:37:38;4.80;99.90
54126;DHT22;40360;52.992;6.796;2023-03-14T08:40:05;4.80;99.90
54126;DHT22;40360;52.992;6.796;2023-03-14T08:42:39;4.80;99.90
54126;DHT22;40360;52.992;6.796;2023-03-14T08:45:06;4.90;99.90
54126;DHT22;40360;52.992;6.796;2023-03-14T08:47:32;4.80;99.90
54126;DHT22;40360;52.992;6.796;2023-03-14T08:49:58;4.80;99.90
54126;DHT22;40360;52.992;6.796;2023-03-14T08:52:23;4.90;99.90
54126;DHT22;40360;52.992;6.796;2023-03-14T08:54:49;4.90;99.90
54126;DHT22;40360;52.992;6.796;2023-03-14T08:57:16;4.90;99.90
54126;DHT22;40360;52.992;6.796;2023-03-14T08:59:42;5.00;99.90
54126;DHT22;40360;52.992;6.796;2023-03-14T09:02:12;5.10;99.90
54126;DHT22;40360;52.992;6.796;2023-03-14T09:04:38;5.10;99.90
54126;DHT22;40360;52.992;6.796;2023-03-14T09:07:03;5.20;99.90
54126;DHT22;40360;52.992;6.796;2023-03-14T09:09:30;5.20;99.90
54126;DHT22;40360;52.992;6.796;2023-03-14T09:11:56;5.20;99.90
54126;DHT22;40360;52.992;6.796;2023-03-14T09:14:22;5.20;99.90
54126;DHT22;40360;52.992;6.796;2023-03-14T09:16:48;5.30;99.90
54126;DHT22;40360;52.992;6.796;2023-03-14T09:19:14;5.40;99.90
54126;DHT22;40360;52.992;6.796;2023-03-14T09:21:39;5.40;99.90
54126;DHT22;40360;52.992;6.796;2023-03-14T09:24:05;5.50;99.90
54126;DHT22;40360;52.992;6.796;2023-03-14T09:26:31;5.50;99.90
54126;DHT22;40360;52.992;6.796;2023-03-14T09:28:59;5.60;99.90
54126;DHT22;40360;52.992;6.796;2023-03-14T09:31:25;5.60;99.90
54126;DHT22;40360;52.992;6.796;2023-03-14T09:33:51;5.70;99.90
54126;DHT22;40360;52.992;6.796;2023-03-14T09:36:16;5.80;99.90
54126;DHT22;40360;52.992;6.796;2023-03-14T09:38:42;5.90;99.90
54126;DHT22;40360;52.992;6.796;2023-03-14T09:44:05;6.20;99.90
54126;DHT22;40360;52.992;6.796;2023-03-14T09:46:36;6.30;99.90
54126;DHT22;40360;52.992;6.796;2023-03-14T09:49:19;6.50;99.90
54126;DHT22;40360;52.992;6.796;2023-03-14T09:51:47;6.50;99.90
54126;DHT22;40360;52.992;6.796;2023-03-14T09:57:16;6.40;99.90
54126;DHT22;40360;52.992;6.796;2023-03-14T09:59:45;6.50;99.90
54126;DHT22;40360;52.992;6.796;2023-03-14T10:02:19;6.50;99.90
54126;DHT22;40360;52.992;6.796;2023-03-14T10:04:47;6.40;99.90
54126;DHT22;40360;52.992;6.796;2023-03-14T10:07:15;6.30;99.90
54126;DHT22;40360;52.992;6.796;2023-03-14T10:09:43;6.30;99.90
54126;DHT22;40360;52.992;6.796;2023-03-14T10:12:10;6.20;99.90
54126;DHT22;40360;52.992;6.796;2023-03-14T10:14:37;6.20;99.90
54126;DHT22;40360;52.992;6.796;2023-03-14T10:17:12;6.20;99.90
54126;DHT22;40360;52.992;6.796;2023-03-14T10:19:51;6.30;99.90
54126;DHT22;40360;52.992;6.796;2023-03-14T10:22:19;6.40;99.90
54126;DHT22;40360;52.992;6.796;2023-03-14T10:25:03;6.50;99.90
54126;DHT22;40360;52.992;6.796;2023-03-14T10:27:34;6.50;99.90
54126;DHT22;40360;52.992;6.796;2023-03-14T10:30:14;6.60;99.90
54126;DHT22;40360;52.992;6.796;2023-03-14T10:33:20;6.60;99.90
54126;DHT22;40360;52.992;6.796;2023-03-14T10:35:51;6.70;99.90
54126;DHT22;40360;52.992;6.796;2023-03-14T10:38:18;6.60;99.90
54126;DHT22;40360;52.992;6.796;2023-03-14T10:40:50;6.50;99.90
54126;DHT22;40360;52.992;6.796;2023-03-14T10:43:22;6.50;99.90
54126;DHT22;40360;52.992;6.796;2023-03-14T10:46:21;6.50;99.90
54126;DHT22;40360;52.992;6.796;2023-03-14T10:48:53;6.60;99.90
54126;DHT22;40360;52.992;6.796;2023-03-14T10:53:59;6.60;99.90
54126;DHT22;40360;52.992;6.796;2023-03-14T10:56:27;6.60;99.90
54126;DHT22;40360;52.992;6.796;2023-03-14T10:58:58;6.60;99.90
54126;DHT22;40360;52.992;6.796;2023-03-14T11:01:47;6.60;99.90
54126;DHT22;40360;52.992;6.796;2023-03-14T11:07:17;6.80;99.90
54126;DHT22;40360;52.992;6.796;2023-03-14T11:15:28;6.80;99.90
54126;DHT22;40360;52.992;6.796;2023-03-14T11:20:44;6.90;99.90
54126;DHT22;40360;52.992;6.796;2023-03-14T11:23:21;7.00;99.90
54126;DHT22;40360;52.992;6.796;2023-03-14T11:29:08;7.30;99.90
54126;DHT22;40360;52.992;6.796;2023-03-14T11:31:20;7.30;99.90
54126;DHT22;40360;52.992;6.796;2023-03-14T11:37:07;7.20;99.90
54126;DHT22;40360;52.992;6.796;2023-03-14T11:39:43;7.20;99.90
54126;DHT22;40360;52.992;6.796;2023-03-14T11:42:16;7.20;99.90
54126;DHT22;40360;52.992;6.796;2023-03-14T11:44:48;7.10;99.90
54126;DHT22;40360;52.992;6.796;2023-03-14T11:47:19;7.10;99.90
54126;DHT22;40360;52.992;6.796;2023-03-14T11:50:22;7.20;99.90
54126;DHT22;40360;52.992;6.796;2023-03-14T11:53:07;7.20;99.90
54126;DHT22;40360;52.992;6.796;2023-03-14T11:55:36;7.20;99.90
54126;DHT22;40360;52.992;6.796;2023-03-14T11:58:19;7.00;99.90
54126;DHT22;40360;52.992;6.796;2023-03-14T12:00:47;6.90;99.90
54126;DHT22;40360;52.992;6.796;2023-03-14T12:06:22;7.00;99.90
54126;DHT22;40360;52.992;6.796;2023-03-14T12:08:53;7.20;99.90
54126;DHT22;40360;52.992;6.796;2023-03-14T12:16:56;7.60;99.90
54126;DHT22;40360;52.992;6.796;2023-03-14T12:21:59;7.90;99.90
54126;DHT22;40360;52.992;6.796;2023-03-14T12:24:29;8.10;99.90
54126;DHT22;40360;52.992;6.796;2023-03-14T12:26:58;8.30;99.90
54126;DHT22;40360;52.992;6.796;2023-03-14T12:29:24;8.30;99.90
54126;DHT22;40360;52.992;6.796;2023-03-14T12:32:22;8.30;99.90
54126;DHT22;40360;52.992;6.796;2023-03-14T12:34:49;8.40;99.90
54126;DHT22;40360;52.992;6.796;2023-03-14T12:40:33;8.60;99.90
54126;DHT22;40360;52.992;6.796;2023-03-14T12:43:04;8.50;99.90
54126;DHT22;40360;52.992;6.796;2023-03-14T12:45:32;8.40;99.90
54126;DHT22;40360;52.992;6.796;2023-03-14T12:48:10;8.50;99.90
54126;DHT22;40360;52.992;6.796;2023-03-14T12:50:45;8.70;99.90
54126;DHT22;40360;52.992;6.796;2023-03-14T13:04:34;8.40;99.90
54126;DHT22;40360;52.992;6.796;2023-03-14T13:07:03;8.50;99.90
54126;DHT22;40360;52.992;6.796;2023-03-14T13:11:58;8.60;99.90
54126;DHT22;40360;52.992;6.796;2023-03-14T13:14:28;8.40;99.90
54126;DHT22;40360;52.992;6.796;2023-03-14T13:16:54;8.10;99.90
54126;DHT22;40360;52.992;6.796;2023-03-14T13:19:30;7.90;99.90
54126;DHT22;40360;52.992;6.796;2023-03-14T13:22:05;7.70;99.90
54126;DHT22;40360;52.992;6.796;2023-03-14T13:24:34;7.60;99.90
54126;DHT22;40360;52.992;6.796;2023-03-14T13:27:00;7.70;99.90
54126;DHT22;40360;52.992;6.796;2023-03-14T13:29:28;7.70;99.90
54126;DHT22;40360;52.992;6.796;2023-03-14T13:31:58;7.60;99.90
54126;DHT22;40360;52.992;6.796;2023-03-14T13:34:28;7.50;99.90
54126;DHT22;40360;52.992;6.796;2023-03-14T13:36:55;7.40;99.90
54126;DHT22;40360;52.992;6.796;2023-03-14T13:39:25;7.40;99.90
54126;DHT22;40360;52.992;6.796;2023-03-14T13:41:52;7.40;99.90
54126;DHT22;40360;52.992;6.796;2023-03-14T13:44:33;7.60;99.90
54126;DHT22;40360;52.992;6.796;2023-03-14T13:47:00;7.70;99.90
54126;DHT22;40360;52.992;6.796;2023-03-14T13:49:28;7.80;99.90
54126;DHT22;40360;52.992;6.796;2023-03-14T13:51:56;7.80;99.90
54126;DHT22;40360;52.992;6.796;2023-03-14T13:54:22;7.90;99.90
54126;DHT22;40360;52.992;6.796;2023-03-14T13:57:02;8.00;99.90
54126;DHT22;40360;52.992;6.796;2023-03-14T13:59:34;8.00;99.90
54126;DHT22;40360;52.992;6.796;2023-03-14T14:02:09;8.10;99.90
54126;DHT22;40360;52.992;6.796;2023-03-14T14:04:38;8.20;99.90
54126;DHT22;40360;52.992;6.796;2023-03-14T14:07:13;8.10;99.90
54126;DHT22;40360;52.992;6.796;2023-03-14T14:09:50;8.20;99.90
54126;DHT22;40360;52.992;6.796;2023-03-14T14:12:37;8.40;99.90
54126;DHT22;40360;52.992;6.796;2023-03-14T14:17:54;8.50;99.90
54126;DHT22;40360;52.992;6.796;2023-03-14T14:20:32;8.40;99.90
54126;DHT22;40360;52.992;6.796;2023-03-14T14:23:04;8.30;99.90
54126;DHT22;40360;52.992;6.796;2023-03-14T14:25:32;7.90;99.90
54126;DHT22;40360;52.992;6.796;2023-03-14T14:27:58;8.10;99.90
54126;DHT22;40360;52.992;6.796;2023-03-14T14:30:32;8.50;99.90
54126;DHT22;40360;52.992;6.796;2023-03-14T14:33:18;8.90;99.90
54126;DHT22;40360;52.992;6.796;2023-03-14T14:36:05;8.70;99.90
54126;DHT22;40360;52.992;6.796;2023-03-14T14:38:37;8.50;99.90
54126;DHT22;40360;52.992;6.796;2023-03-14T14:41:03;8.30;99.90
54126;DHT22;40360;52.992;6.796;2023-03-14T14:43:32;8.10;99.90
54126;DHT22;40360;52.992;6.796;2023-03-14T14:45:59;7.90;99.90
54126;DHT22;40360;52.992;6.796;2023-03-14T14:48:27;8.00;99.90
54126;DHT22;40360;52.992;6.796;2023-03-14T14:51:00;8.00;99.90
54126;DHT22;40360;52.992;6.796;2023-03-14T14:53:40;7.80;99.80
54126;DHT22;40360;52.992;6.796;2023-03-14T14:58:40;7.60;99.90
54126;DHT22;40360;52.992;6.796;2023-03-14T15:01:22;7.50;99.90
54126;DHT22;40360;52.992;6.796;2023-03-14T15:03:52;7.30;99.90
54126;DHT22;40360;52.992;6.796;2023-03-14T15:06:19;7.20;99.90
54126;DHT22;40360;52.992;6.796;2023-03-14T15:08:47;7.10;99.90
54126;DHT22;40360;52.992;6.796;2023-03-14T15:11:18;7.00;99.90
54126;DHT22;40360;52.992;6.796;2023-03-14T15:13:44;7.00;99.90
54126;DHT22;40360;52.992;6.796;2023-03-14T15:16:11;7.00;99.90
54126;DHT22;40360;52.992;6.796;2023-03-14T15:18:37;7.10;99.90
54126;DHT22;40360;52.992;6.796;2023-03-14T15:21:03;7.30;99.90
54126;DHT22;40360;52.992;6.796;2023-03-14T15:23:30;7.40;99.90
54126;DHT22;40360;52.992;6.796;2023-03-14T15:25:56;7.60;99.90
54126;DHT22;40360;52.992;6.796;2023-03-14T15:28:24;7.60;99.90
54126;DHT22;40360;52.992;6.796;2023-03-14T15:30:55;7.50;99.90
54126;DHT22;40360;52.992;6.796;2023-03-14T15:33:21;7.90;99.90
54126;DHT22;40360;52.992;6.796;2023-03-14T15:35:48;7.70;99.90
54126;DHT22;40360;52.992;6.796;2023-03-14T15:38:18;7.70;99.90
54126;DHT22;40360;52.992;6.796;2023-03-14T15:40:46;7.60;99.90
54126;DHT22;40360;52.992;6.796;2023-03-14T15:43:12;7.50;99.90
54126;DHT22;40360;52.992;6.796;2023-03-14T15:45:38;7.40;99.90
54126;DHT22;40360;52.992;6.796;2023-03-14T15:48:05;7.30;99.90
54126;DHT22;40360;52.992;6.796;2023-03-14T15:50:30;7.10;99.90
54126;DHT22;40360;52.992;6.796;2023-03-14T15:52:56;7.00;99.90
54126;DHT22;40360;52.992;6.796;2023-03-14T15:55:22;7.00;99.90
54126;DHT22;40360;52.992;6.796;2023-03-14T15:57:48;7.00;99.90
54126;DHT22;40360;52.992;6.796;2023-03-14T16:00:17;6.90;99.90
54126;DHT22;40360;52.992;6.796;2023-03-14T16:02:44;6.80;99.90
54126;DHT22;40360;52.992;6.796;2023-03-14T16:05:11;6.80;99.90
54126;DHT22;40360;52.992;6.796;2023-03-14T16:07:38;6.70;99.90
54126;DHT22;40360;52.992;6.796;2023-03-14T16:10:05;6.60;99.90
54126;DHT22;40360;52.992;6.796;2023-03-14T16:12:32;6.50;99.90
54126;DHT22;40360;52.992;6.796;2023-03-14T16:14:58;6.50;99.90
54126;DHT22;40360;52.992;6.796;2023-03-14T16:17:24;6.40;99.90
54126;DHT22;40360;52.992;6.796;2023-03-14T16:19:50;6.30;99.90
54126;DHT22;40360;52.992;6.796;2023-03-14T16:22:15;6.20;99.90
54126;DHT22;40360;52.992;6.796;2023-03-14T16:24:41;6.10;99.90
54126;DHT22;40360;52.992;6.796;2023-03-14T16:27:07;6.00;99.90
54126;DHT22;40360;52.992;6.796;2023-03-14T16:29:32;6.00;99.90
54126;DHT22;40360;52.992;6.796;2023-03-14T16:31:58;5.90;99.90
54126;DHT22;40360;52.992;6.796;2023-03-14T16:34:24;5.80;99.90
54126;DHT22;40360;52.992;6.796;2023-03-14T16:36:49;5.70;99.90
54126;DHT22;40360;52.992;6.796;2023-03-14T16:39:18;5.70;99.90
54126;DHT22;40360;52.992;6.796;2023-03-14T16:41:44;5.70;99.90
54126;DHT22;40360;52.992;6.796;2023-03-14T16:44:10;5.70;99.90
54126;DHT22;40360;52.992;6.796;2023-03-14T16:46:36;5.60;99.90
54126;DHT22;40360;52.992;6.796;2023-03-14T16:49:03;5.60;99.90
54126;DHT22;40360;52.992;6.796;2023-03-14T16:51:29;5.40;99.90
54126;DHT22;40360;52.992;6.796;2023-03-14T16:53:55;5.20;99.90
54126;DHT22;40360;52.992;6.796;2023-03-14T16:56:21;5.10;99.90
54126;DHT22;40360;52.992;6.796;2023-03-14T16:58:48;4.90;99.90
54126;DHT22;40360;52.992;6.796;2023-03-14T17:01:15;4.80;99.90
54126;DHT22;40360;52.992;6.796;2023-03-14T17:03:44;4.70;99.90
54126;DHT22;40360;52.992;6.796;2023-03-14T17:06:12;4.70;99.90
54126;DHT22;40360;52.992;6.796;2023-03-14T17:08:38;4.70;99.90
54126;DHT22;40360;52.992;6.796;2023-03-14T17:11:03;4.60;99.90
54126;DHT22;40360;52.992;6.796;2023-03-14T17:13:29;4.60;99.90
54126;DHT22;40360;52.992;6.796;2023-03-14T17:15:57;4.60;99.90
54126;DHT22;40360;52.992;6.796;2023-03-14T17:18:24;4.50;99.90
54126;DHT22;40360;52.992;6.796;2023-03-14T17:20:54;4.50;99.90
54126;DHT22;40360;52.992;6.796;2023-03-14T17:23:22;4.40;99.90
54126;DHT22;40360;52.992;6.796;2023-03-14T17:25:49;4.40;99.90
54126;DHT22;40360;52.992;6.796;2023-03-14T17:28:20;4.30;99.90
54126;DHT22;40360;52.992;6.796;2023-03-14T17:30:47;4.30;99.90
54126;DHT22;40360;52.992;6.796;2023-03-14T17:33:13;4.30;99.90
54126;DHT22;40360;52.992;6.796;2023-03-14T17:35:39;4.20;99.90
54126;DHT22;40360;52.992;6.796;2023-03-14T17:38:05;4.20;99.90